Latest Coastal Weather Observations for Centre Island

IDD60701

Issued at 7:25 pm CST Friday 28 November 2014 (issued every 10 minutes, with the page automatically refreshed every 10 minutes)

About coastal observations | Map of coastal stations | Coastal observations for NT | Marine services | Other Formats
Station Details ID: 014703 Name: CENTRE ISLAND Lat: -15.74 Lon: 136.82 Height: 12.2 m
Data from the previous 72 hours. | See also: Recent months at Centre Island
Date/Time
CST
Temp

°C
Wind Pressure Rain
since 9am
mm
Weather Cloud Vis
km
Sea
Height
m
Swell
Dir
 
Speed
knots
Gust
knots
hPa Trend Height
m
Period
s
Dir
28/07:00pm 28.3 NNE 15 19 1007.6 - 15.6 - - - - - - -
28/06:30pm 28.4 NNE 15 20 1007.3 - 15.6 - - - - - - -
28/06:00pm 29.2 NNE 14 19 1007.0 - 15.6 - - - - - - -
28/05:30pm 29.6 NNE 13 18 1006.8 - 15.6 - - - - - - -
28/05:00pm 29.6 NNE 15 19 1006.6 - 15.6 - - - - - - -
28/04:30pm 30.1 NNE 16 21 1006.8 - 15.6 - - - - - - -
28/04:00pm 30.0 NE 19 25 1007.1 - 15.6 - - - - - - -
28/03:30pm 32.2 NNE 14 18 1006.9 - 15.6 - - - - - - -
28/03:00pm 33.6 N 10 14 1007.1 - 15.6 - - - - - - -
28/02:30pm 32.8 NNE 11 15 1007.0 - 15.6 - - - - - - -
28/02:00pm 34.8 N 10 14 1007.4 - 15.6 - - - - - - -
28/01:30pm 34.3 N 8 13 1007.7 - 15.6 - - - - - - -
28/01:00pm 33.5 N 7 9 1008.0 - 15.6 - - - - - - -
28/12:30pm 32.4 NNE 5 7 1008.7 - 15.6 - - - - - - -
28/12:00pm 32.0 NNW 6 10 1008.9 - 15.6 - - - - - - -
28/11:30am 31.7 N 6 8 1009.2 - 15.6 - - - - - - -
28/11:00am 29.0 NNE 10 14 1009.7 - 15.6 - - - - - - -
28/10:30am 29.3 NNW 5 7 1010.1 - 15.6 - - - - - - -
28/10:00am 25.9 N 7 11 1010.3 - 15.6 - - - - - - -
28/09:30am 24.8 N 10 15 1011.0 - 10.6 - - - - - - -
28/09:00am 27.7 W 11 17 1010.4 - 4.2 Rain - - - - - -
28/08:30am 30.6 W 6 9 1010.6 - 0.0 - - - - - - -
28/08:00am 30.9 WSW 4 6 1010.3 - 0.0 - - - - - - -
28/07:30am 30.0 WNW 4 6 1009.9 - 0.0 - - - - - - -
28/07:00am 29.7 NW 5 7 1009.3 - 0.0 - - - - - - -
28/06:30am 29.0 NNW 1 5 1008.9 - 0.0 - - - - - - -
28/06:00am 28.0 NNW 4 4 1008.6 - 0.0 - - - - - - -
28/05:30am 27.6 N 3 4 1008.1 - 0.0 - - - - - - -
28/05:00am 27.7 NNW 4 5 1008.0 - 0.0 - - - - - - -
28/04:30am 27.8 NNW 4 6 1007.7 - 0.0 - - - - - - -
28/04:00am 28.0 N 4 6 1007.6 - 0.0 - - - - - - -
28/03:30am 28.0 N 4 6 1007.5 - 0.0 - - - - - - -
28/03:00am 28.1 NNW 5 6 1007.6 - 0.0 - - - - - - -
28/02:30am 28.3 NNW 5 6 1007.6 - 0.0 - - - - - - -
28/02:00am 28.4 N 4 5 1007.8 - 0.0 - - - - - - -
28/01:30am 28.4 N 5 7 1007.7 - 0.0 - - - - - - -
28/01:00am 28.5 NNW 5 8 1007.8 - 0.0 - - - - - - -
28/12:30am 28.6 N 6 8 1008.2 - 0.0 - - - - - - -
28/12:00am 29.1 N 8 11 1008.5 - 0.0 - - - - - - -
 
Date/Time
CST
Temp

°C
Wind Pressure Rain
since 9am
mm
Weather Cloud Vis
km
Sea
Height
m
Swell
Dir
 
Speed
knots
Gust
knots
hPa Trend Height
m
Period
s
Dir
27/11:30pm 29.3 NNE 9 12 1008.9 - 0.0 - - - - - - -
27/11:00pm 29.4 NNE 10 13 1009.1 - 0.0 - - - - - - -
27/10:30pm 29.4 NE 9 12 1009.0 - 0.0 - - - - - - -
27/10:00pm 29.4 NNE 9 12 1009.0 - 0.0 - - - - - - -
27/09:30pm 29.5 NNE 9 12 1008.9 - 0.0 - - - - - - -
27/09:00pm 29.5 NE 8 11 1008.8 - 0.0 - - - - - - -
27/08:30pm 29.5 NNE 9 11 1008.4 - 0.0 - - - - - - -
27/08:00pm 29.7 NNE 10 12 1008.3 - 0.0 - - - - - - -
27/07:30pm 29.7 NNE 9 11 1008.0 - 0.0 - - - - - - -
27/07:00pm 30.0 NNE 10 13 1008.0 - 0.0 - - - - - - -
27/06:30pm 30.2 NNE 12 15 1007.4 - 0.0 - - - - - - -
27/06:00pm 30.8 NE 11 15 1007.2 - 0.0 - - - - - - -
27/05:30pm 31.5 NE 11 14 1007.1 - 0.0 - - - - - - -
27/05:00pm 31.9 NE 11 14 1007.3 - 0.0 - - - - - - -
27/04:30pm 32.0 NE 12 15 1007.2 - 0.0 - - - - - - -
27/04:00pm 32.6 NE 12 15 1007.1 - 0.0 - - - - - - -
27/03:30pm 32.7 NE 12 16 1007.5 - 0.0 - - - - - - -
27/03:00pm 33.7 NE 12 15 1007.7 - 0.0 - - - - - - -
27/02:30pm 33.4 NNE 13 17 1008.0 - 0.0 - - - - - - -
27/02:00pm 34.0 NNE 13 18 1008.2 - 0.0 - - - - - - -
27/01:30pm 33.8 NNE 12 16 1008.5 - 0.0 - - - - - - -
27/01:00pm 33.7 NNE 12 17 1008.7 - 0.0 - - - - - - -
27/12:30pm 34.3 NNE 13 16 1009.0 - 0.0 - - - - - - -
27/12:00pm 33.6 NNE 12 16 1009.3 - 0.0 - - - - - - -
27/11:30am 33.7 NNE 10 13 1009.7 - 0.0 - - - - - - -
27/11:00am 33.5 NNE 9 13 1009.9 - 0.0 - - - - - - -
27/10:30am 33.2 NNE 8 13 1010.1 - 0.0 - - - - - - -
27/10:00am 33.1 NE 7 11 1010.3 - 0.0 - - - - - - -
27/09:30am 32.4 ENE 6 8 1010.5 - 0.0 - - - - - - -
27/09:00am 31.9 E 7 10 1010.4 - 0.0 - - - - - - -
27/08:30am 31.5 E 7 9 1009.9 - 0.0 - - - - - - -
27/08:00am 30.8 SE 4 5 1009.5 - 0.0 - - - - - - -
27/07:30am 30.3 SSE 4 5 1009.4 - 0.0 - - - - - - -
27/07:00am 30.2 SSW 3 5 1009.0 - 0.0 - - - - - - -
27/06:30am 29.1 SSW 5 6 1008.6 - 0.0 - - - - - - -
27/06:00am 27.9 W 5 6 1008.1 - 0.0 - - - - - - -
27/05:30am 27.2 NW 3 4 1007.8 - 0.0 - - - - - - -
27/05:00am 27.0 NNW 3 4 1007.6 - 0.0 - - - - - - -
27/04:30am 27.1 NNW 3 4 1007.4 - 0.0 - - - - - - -
27/04:00am 27.3 NNW 5 5 1007.1 - 0.0 - - - - - - -
27/03:30am 28.0 SSW 3 4 1007.1 - 0.0 - - - - - - -
27/03:00am 28.3 S 4 6 1007.1 - 0.0 - - - - - - -
27/02:30am 28.5 S 6 8 1007.5 - 0.0 - - - - - - -
27/02:00am 28.5 S 3 6 1007.6 - 0.0 - - - - - - -
27/01:30am 28.6 SE 5 7 1007.8 - 0.0 - - - - - - -
27/01:00am 28.5 SE 4 6 1008.2 - 0.0 - - - - - - -
27/12:30am 28.6 ESE 2 5 1008.5 - 0.0 - - - - - - -
27/12:00am 29.0 ESE 7 8 1009.0 - 0.0 - - - - - - -
 
Date/Time
CST
Temp

°C
Wind Pressure Rain
since 9am
mm
Weather Cloud Vis
km
Sea
Height
m
Swell
Dir
 
Speed
knots
Gust
knots
hPa Trend Height
m
Period
s
Dir
26/11:30pm 29.2 E 6 7 1009.2 - 0.0 - - - - - - -
26/11:00pm 29.2 NNE 6 7 1008.9 - 0.0 - - - - - - -
26/10:30pm 29.1 NNE 5 7 1009.0 - 0.0 - - - - - - -
26/10:00pm 28.8 N 5 6 1008.7 - 0.0 - - - - - - -
26/09:30pm 28.8 N 6 7 1008.3 - 0.0 - - - - - - -
26/09:00pm 28.6 NNW 4 6 1008.1 - 0.0 - - - - - - -
26/08:30pm 28.9 N 5 7 1007.8 - 0.0 - - - - - - -
26/08:00pm 29.2 N 6 8 1007.6 - 0.0 - - - - - - -
26/07:30pm 29.4 N 6 9 1007.2 - 0.0 - - - - - - -
26/07:00pm 29.7 N 7 11 1006.8 - 0.0 - - - - - - -
26/06:30pm 30.2 N 8 11 1006.5 - 0.0 - - - - - - -
26/06:00pm 30.5 NNE 11 15 1006.4 - 0.0 - - - - - - -
26/05:30pm 30.7 NNE 9 12 1006.3 - 0.0 - - - - - - -
26/05:00pm 31.2 NE 8 11 1006.4 - 0.0 - - - - - - -
26/04:30pm 30.8 NNE 6 8 1006.4 - 0.0 - - - - - - -
26/04:00pm 30.8 NE 7 9 1006.5 - 0.0 - - - - - - -
26/03:30pm 30.9 NNE 8 9 1006.5 - 0.0 - - - - - - -
26/03:00pm 31.3 N 7 9 1006.8 - 0.0 - - - - - - -
26/02:30pm 31.1 NNE 9 12 1006.8 - 0.0 - - - - - - -
26/02:00pm 32.4 NNE 8 11 1007.1 - 0.0 - - - - - - -
26/01:30pm 31.3 NNE 9 11 1007.7 - 0.0 - - - - - - -
26/01:00pm 31.1 NE 13 17 1008.2 - 0.0 - - - - - - -
26/12:30pm 30.1 ENE 7 10 1008.3 - 0.0 - - - - - - -
26/12:06pm 30.5 ENE 19 24 1008.7 - 0.0 - - - - - - -
26/12:00pm 32.3 NE 8 11 1008.9 - 0.0 - - - - - - -
26/11:30am 33.2 NNE 5 7 1008.9 - 0.0 - - - - - - -
26/11:00am 31.8 SE 4 6 1009.0 - 0.0 - - - - - - -
26/10:30am 32.1 ESE 5 7 1009.3 - 0.0 - - - - - - -
26/10:00am 31.6 ESE 7 10 1009.7 - 0.0 - - - - - - -
26/09:30am 32.3 SE 9 11 1009.7 - 0.0 - - - - - - -
26/09:00am 31.4 SSE 7 9 1009.6 - 0.2 - - - - - - -
26/08:30am 30.8 SE 8 10 1009.6 - 0.2 - - - - - - -
26/08:00am 30.3 SE 7 9 1009.5 - 0.2 - - - - - - -
26/07:30am 30.1 SE 5 7 1009.0 - 0.2 - - - - - - -
26/07:00am 29.4 S 5 6 1008.5 - 0.2 - - - - - - -
26/06:30am 29.1 SSW 7 9 1008.2 - 0.2 - - - - - - -
26/06:00am 28.4 SSW 8 11 1007.8 - 0.2 - - - - - - -
26/05:30am 28.2 S 9 11 1007.4 - 0.2 - - - - - - -
26/05:00am 28.1 S 9 11 1007.0 - 0.2 - - - - - - -
26/04:30am 28.1 S 9 12 1006.7 - 0.2 - - - - - - -
26/04:00am 28.1 S 9 11 1006.6 - 0.2 - - - - - - -
26/03:30am 28.2 S 8 10 1006.5 - 0.2 - - - - - - -
26/03:00am 28.3 SSW 7 9 1006.5 - 0.2 - - - - - - -
26/02:30am 28.1 SW 6 7 1006.5 - 0.2 - - - - - - -
26/02:00am 28.0 S 2 4 1006.9 - 0.2 - - - - - - -
26/01:30am 27.8 WSW 3 4 1007.3 - 0.2 - - - - - - -
26/01:00am 28.1 W 5 6 1007.6 - 0.2 - - - - - - -
26/12:30am 28.1 W 5 6 1007.9 - 0.2 - - - - - - -
26/12:00am 27.7 NNW 4 5 1008.0 - 0.2 - - - - - - -
 
Date/Time
CST
Temp

°C
Wind Pressure Rain
since 9am
mm
Weather Cloud Vis
km
Sea
Height
m
Swell
Dir
 
Speed
knots
Gust
knots
hPa Trend Height
m
Period
s
Dir
25/11:30pm 27.9 NNW 5 7 1008.3 - 0.2 - - - - - - -
25/11:00pm 28.7 N 5 7 1008.5 - 0.2 - - - - - - -
25/10:30pm 28.7 N 7 9 1008.5 - 0.2 - - - - - - -
25/10:00pm 28.9 NNE 9 11 1008.2 - 0.2 - - - - - - -
25/09:30pm 29.0 NE 7 9 1008.4 - 0.2 - - - - - - -
25/09:00pm 29.0 NE 6 9 1008.6 - 0.2 - - - - - - -
25/08:30pm 28.9 NNE 5 7 1008.6 - 0.2 - - - - - - -
25/08:00pm 28.8 NNE 5 6 1008.1 - 0.2 - - - - - - -
25/07:30pm 29.1 N 6 8 1007.6 - 0.2 - - - - - - -

Other Formats:

Comma delimited format used in spreadsheet applications
http://www.bom.gov.au/fwo/IDD60701/IDD60701.94248.axf

JavaScript Object Notation format (JSON) in row-major order
http://www.bom.gov.au/fwo/IDD60701/IDD60701.94248.json